Time;durP1;ratioP1;P1;durP2;ratioP2;P2;SDS_P1;SDS_P2;PMS_P1;PMS_P2;Temp;Humidity;BMP_temperature;BMP_pressure;BME280_temperature;BME280_humidity;BME280_pressure;Samples;Min_cycle;Max_cycle;Signal;HPM_P1;HPM_P2
2021/09/27 00:03:26;;;;;;;12.70;10.80;;;;;;;;;;6322839;22;20928;31
2021/09/27 00:19:57;;;;;;;11.85;10.60;;;;;;;;;;6133959;23;20216;31
2021/09/27 00:26:42;;;;;;;12.93;11.55;;;;;;;;;;5671230;23;20222;-61
2021/09/27 00:30:53;;;;;;;12.68;11.38;;;;;;;;;;6175433;22;20545;31
2021/09/27 00:38:09;;;;;;;13.65;11.57;;;;;;;;;;6173963;22;20574;31
2021/09/27 00:59:30;;;;;;;15.60;12.35;;;;;;;;;;6292807;22;20634;31
2021/09/27 01:06:15;;;;;;;15.27;12.98;;;;;;;;;;6231548;22;20572;31
2021/09/27 01:22:33;;;;;;;14.32;11.98;;;;;;;;;;6225756;22;20188;31
2021/09/27 01:27:36;;;;;;;15.30;12.27;;;;;;;;;;6316895;22;20988;31
2021/09/27 01:55:38;;;;;;;13.77;10.98;;;;;;;;;;6346580;22;20500;31
2021/09/27 01:58:03;;;;;;;13.07;10.70;;;;;;;;;;6344407;22;20217;31
2021/09/27 02:05:43;;;;;;;14.40;11.82;;;;;;;;;;5644078;23;20218;31
2021/09/27 02:09:59;;;;;;;12.05;10.75;;;;;;;;;;6168617;22;23457;31
2021/09/27 02:16:41;;;;;;;12.93;11.18;;;;;;;;;;6259154;22;21783;-65
2021/09/27 02:19:06;;;;;;;13.73;11.00;;;;;;;;;;6232381;22;20196;31
2021/09/27 02:26:21;;;;;;;12.25;10.45;;;;;;;;;;6225485;22;20201;31
2021/09/27 02:30:59;;;;;;;12.68;11.15;;;;;;;;;;6344781;22;20504;-62
2021/09/27 02:38:03;;;;;;;13.25;10.55;;;;;;;;;;6259570;22;20541;31
2021/09/27 02:47:12;;;;;;;12.43;10.27;;;;;;;;;;6136303;23;20207;31
2021/09/27 02:51:39;;;;;;;11.20;9.85;;;;;;;;;;6259446;22;20625;31
2021/09/27 03:14:43;;;;;;;12.90;10.95;;;;;;;;;;6202270;22;20201;31
2021/09/27 03:19:04;;;;;;;11.63;9.68;;;;;;;;;;6260373;22;20576;31
2021/09/27 03:25:57;;;;;;;12.20;10.75;;;;;;;;;;6259998;22;20535;31
2021/09/27 03:28:22;;;;;;;13.48;10.25;;;;;;;;;;6227670;22;20197;31
2021/09/27 03:53:15;;;;;;;12.68;10.20;;;;;;;;;;6323436;22;20516;31
2021/09/27 04:09:05;;;;;;;12.48;10.38;;;;;;;;;;6136408;23;20194;31
2021/09/27 04:13:23;;;;;;;13.23;10.18;;;;;;;;;;6347587;22;20536;31
2021/09/27 04:22:27;;;;;;;11.20;10.00;;;;;;;;;;6256733;22;20341;31
2021/09/27 04:29:22;;;;;;;12.27;10.23;;;;;;;;;;6287900;22;20207;31
2021/09/27 04:47:31;;;;;;;12.00;10.57;;;;;;;;;;6291349;22;20507;-65
2021/09/27 04:57:09;;;;;;;11.55;10.10;;;;;;;;;;6255850;22;20193;31
2021/09/27 05:08:21;;;;;;;12.30;10.60;;;;;;;;;;6169200;22;20530;31
2021/09/27 05:10:46;;;;;;;12.57;10.43;;;;;;;;;;6136189;23;20200;31
2021/09/27 05:17:42;;;;;;;12.20;10.02;;;;;;;;;;6203839;22;20213;31
2021/09/27 05:24:54;;;;;;;10.55;9.45;;;;;;;;;;6288785;22;20199;31
2021/09/27 05:29:42;;;;;;;11.45;10.20;;;;;;;;;;6262490;22;20625;31
2021/09/27 05:39:26;;;;;;;10.55;9.45;;;;;;;;;;6288914;22;20207;31
2021/09/27 05:51:04;;;;;;;11.43;10.07;;;;;;;;;;6324478;22;20514;31
2021/09/27 05:58:33;;;;;;;10.30;9.30;;;;;;;;;;6347774;22;20519;31
2021/09/27 06:05:30;;;;;;;11.10;10.00;;;;;;;;;;6348268;22;20548;31
2021/09/27 06:14:52;;;;;;;10.23;9.13;;;;;;;;;;6259159;22;20196;31
2021/09/27 06:28:23;;;;;;;10.02;8.85;;;;;;;;;;6198160;22;20213;31
2021/09/27 06:33:30;;;;;;;11.02;9.27;;;;;;;;;;6348880;22;20519;31
2021/09/27 06:43:09;;;;;;;9.63;8.50;;;;;;;;;;6327120;22;20226;31
2021/09/27 06:50:34;;;;;;;8.75;7.85;;;;;;;;;;5772049;23;21338;31
2021/09/27 07:02:21;;;;;;;9.00;8.10;;;;;;;;;;6293303;22;20568;31
2021/09/27 07:16:04;;;;;;;10.82;7.88;;;;;;;;;;6291167;22;20665;-63
2021/09/27 07:18:31;;;;;;;8.05;7.18;;;;;;;;;;6258687;22;20204;31
2021/09/27 07:23:05;;;;;;;8.98;7.93;;;;;;;;;;6260630;22;20564;31
2021/09/27 07:29:53;;;;;;;9.20;8.18;;;;;;;;;;6208488;22;20516;31
2021/09/27 07:37:04;;;;;;;9.52;7.75;;;;;;;;;;6261102;22;21586;31
2021/09/27 07:44:37;;;;;;;8.40;7.28;;;;;;;;;;6350822;22;20504;31
2021/09/27 07:51:18;;;;;;;7.80;7.10;;;;;;;;;;6205942;22;22547;31
2021/09/27 08:05:19;;;;;;;8.00;7.20;;;;;;;;;;6322711;22;20517;31
2021/09/27 08:14:30;;;;;;;7.82;7.03;;;;;;;;;;6199931;22;21029;-62
2021/09/27 08:19:03;;;;;;;8.02;7.22;;;;;;;;;;6168330;22;20528;31
2021/09/27 08:40:28;;;;;;;9.43;8.45;;;;;;;;;;6292528;22;21408;31
2021/09/27 08:49:54;;;;;;;8.63;7.78;;;;;;;;;;6182435;22;20203;31
2021/09/27 08:56:50;;;;;;;11.55;8.10;;;;;;;;;;6233294;22;20197;31
2021/09/27 09:05:11;;;;;;;8.95;8.05;;;;;;;;;;6288890;22;20207;31
2021/09/27 09:11:48;;;;;;;9.00;8.10;;;;;;;;;;6288449;22;20449;31
2021/09/27 09:19:03;;;;;;;8.77;7.90;;;;;;;;;;5832599;22;20212;31
2021/09/27 09:23:40;;;;;;;10.45;9.40;;;;;;;;;;6345017;22;20375;-65
2021/09/27 09:26:06;;;;;;;9.27;8.38;;;;;;;;;;6319668;22;20208;31
2021/09/27 09:37:38;;;;;;;9.48;8.35;;;;;;;;;;6260827;22;20535;31
2021/09/27 09:44:31;;;;;;;9.57;7.95;;;;;;;;;;6260613;22;20573;31
2021/09/27 09:46:57;;;;;;;9.40;8.30;;;;;;;;;;6227221;22;20212;31
2021/09/27 09:53:45;;;;;;;10.48;8.63;;;;;;;;;;6135654;23;20196;31
2021/09/27 09:58:35;;;;;;;9.02;8.18;;;;;;;;;;5775003;22;20518;31
2021/09/27 10:08:12;;;;;;;10.00;8.35;;;;;;;;;;6142708;23;20203;31
2021/09/27 10:12:11;;;;;;;11.00;8.85;;;;;;;;;;6321124;22;20530;-64
2021/09/27 10:14:37;;;;;;;8.98;8.02;;;;;;;;;;6294914;22;20314;31
2021/09/27 10:19:13;;;;;;;9.07;8.18;;;;;;;;;;6228347;22;20527;31
2021/09/27 10:28:29;;;;;;;10.82;8.30;;;;;;;;;;6195273;22;20415;-65
2021/09/27 10:35:10;;;;;;;10.57;8.50;;;;;;;;;;6225709;22;20205;31
2021/09/27 10:46:54;;;;;;;9.27;8.35;;;;;;;;;;6320636;22;20541;-64
2021/09/27 10:49:20;;;;;;;9.02;8.05;;;;;;;;;;6286391;22;20193;31
2021/09/27 10:56:29;;;;;;;10.25;7.90;;;;;;;;;;6225804;22;20204;31
2021/09/27 11:01:12;;;;;;;11.05;8.55;;;;;;;;;;5872610;22;20583;31
2021/09/27 11:08:03;;;;;;;9.23;8.20;;;;;;;;;;6322884;22;20542;31
2021/09/27 11:17:27;;;;;;;8.38;7.53;;;;;;;;;;6226291;22;20193;31
2021/09/27 11:42:31;;;;;;;9.05;8.10;;;;;;;;;;6258421;22;20648;31
2021/09/27 11:51:42;;;;;;;8.60;7.78;;;;;;;;;;5778584;23;20324;31
2021/09/27 12:03:04;;;;;;;8.90;7.97;;;;;;;;;;6260244;22;20885;31
2021/09/27 12:05:30;;;;;;;8.48;7.32;;;;;;;;;;6226464;22;20190;31
2021/09/27 12:16:34;;;;;;;8.50;7.70;;;;;;;;;;6234656;22;20795;31
2021/09/27 12:24:27;;;;;;;9.05;8.10;;;;;;;;;;6260126;22;20262;31
2021/09/27 12:26:54;;;;;;;8.90;7.90;;;;;;;;;;6252666;22;20189;31
2021/09/27 12:31:19;;;;;;;8.63;7.72;;;;;;;;;;6259236;22;20542;31
2021/09/27 12:33:45;;;;;;;8.80;8.00;;;;;;;;;;6225394;22;20252;31
2021/09/27 12:41:14;;;;;;;8.38;7.60;;;;;;;;;;6202167;22;20193;31
2021/09/27 12:54:25;;;;;;;9.77;8.48;;;;;;;;;;6196148;22;20201;31
2021/09/27 12:59:35;;;;;;;10.13;8.68;;;;;;;;;;6205607;22;20513;31
2021/09/27 13:02:07;;;;;;;9.65;7.95;;;;;;;;;;6202718;22;20192;31
2021/09/27 13:08:56;;;;;;;9.93;8.50;;;;;;;;;;6203690;22;20201;31
2021/09/27 13:20:34;;;;;;;10.25;9.25;;;;;;;;;;6206189;22;20958;31
2021/09/27 13:27:10;;;;;;;9.93;8.93;;;;;;;;;;6259986;22;20551;-66
2021/09/27 13:34:22;;;;;;;10.77;9.55;;;;;;;;;;6322810;22;20909;-60
2021/09/27 13:36:49;;;;;;;10.65;9.63;;;;;;;;;;6295455;22;20219;31
2021/09/27 13:44:11;;;;;;;9.48;8.52;;;;;;;;;;6288276;22;20199;31
2021/09/27 13:50:50;;;;;;;10.70;9.60;;;;;;;;;;6195835;22;20206;31
2021/09/27 13:57:27;;;;;;;9.60;8.70;;;;;;;;;;6142945;23;20207;31
2021/09/27 14:04:44;;;;;;;10.70;9.20;;;;;;;;;;6178553;22;20202;31
2021/09/27 14:08:58;;;;;;;10.65;9.65;;;;;;;;;;6259504;22;20538;-62
2021/09/27 14:11:24;;;;;;;11.25;10.15;;;;;;;;;;6232830;22;20197;31
2021/09/27 14:15:49;;;;;;;11.48;10.35;;;;;;;;;;6167599;22;20513;31
2021/09/27 14:18:22;;;;;;;11.23;10.23;;;;;;;;;;6140612;23;20215;31
2021/09/27 14:33:07;;;;;;;12.10;10.85;;;;;;;;;;6319010;22;20204;31
2021/09/27 14:44:21;;;;;;;11.98;10.77;;;;;;;;;;6204959;22;21619;-62
2021/09/27 15:00:33;;;;;;;10.60;9.43;;;;;;;;;;6172480;22;20573;31
2021/09/27 15:07:15;;;;;;;11.85;10.68;;;;;;;;;;6197319;22;20209;31
2021/09/27 15:13:53;;;;;;;11.05;9.95;;;;;;;;;;6288239;22;20212;31
2021/09/27 15:21:15;;;;;;;11.25;10.10;;;;;;;;;;6197425;22;20209;31
2021/09/27 15:26:04;;;;;;;10.63;9.52;;;;;;;;;;6198737;22;20174;31
2021/09/27 15:35:10;;;;;;;10.77;9.68;;;;;;;;;;6179536;22;20199;-62
2021/09/27 16:09:13;;;;;;;11.93;10.18;;;;;;;;;;6320945;22;20188;31
2021/09/27 16:30:30;;;;;;;10.85;9.63;;;;;;;;;;6261323;22;20200;-65
2021/09/27 16:37:49;;;;;;;10.30;8.85;;;;;;;;;;6227098;22;20190;31
2021/09/27 16:52:08;;;;;;;10.52;9.15;;;;;;;;;;6286484;22;20204;31
2021/09/27 16:59:03;;;;;;;10.27;9.18;;;;;;;;;;6195881;22;20194;31
2021/09/27 17:03:57;;;;;;;;;;;;;;;;;;;;;
2021/09/27 17:10:33;;;;;;;12.00;9.30;;;;;;;;;;6228674;22;20643;-67
2021/09/27 17:12:59;;;;;;;10.15;8.45;;;;;;;;;;6176393;22;20242;31
2021/09/27 17:26:39;;;;;;;10.02;9.02;;;;;;;;;;6136545;23;20443;31
2021/09/27 17:33:40;;;;;;;11.82;10.00;;;;;;;;;;6173496;23;20202;31
2021/09/27 17:44:54;;;;;;;9.75;8.75;;;;;;;;;;6168970;22;20591;31
2021/09/27 17:51:47;;;;;;;11.43;8.95;;;;;;;;;;6168697;22;20525;31
2021/09/27 18:13:14;;;;;;;11.15;9.57;;;;;;;;;;6324264;22;20541;31
2021/09/27 18:15:47;;;;;;;10.05;8.95;;;;;;;;;;6320494;22;20206;-64
2021/09/27 18:20:07;;;;;;;12.52;9.80;;;;;;;;;;6260078;22;21221;31
2021/09/27 18:57:42;;;;;;;13.43;11.93;;;;;;;;;;6225722;22;20201;31
2021/09/27 19:01:52;;;;;;;16.27;12.73;;;;;;;;;;6290704;22;21867;31
2021/09/27 19:11:26;;;;;;;13.70;12.07;;;;;;;;;;6287551;22;20207;31
2021/09/27 19:25:08;;;;;;;16.10;12.77;;;;;;;;;;6318851;22;22623;31
2021/09/27 19:32:03;;;;;;;15.23;13.32;;;;;;;;;;6319455;22;20198;31
2021/09/27 19:36:12;;;;;;;16.83;13.35;;;;;;;;;;6168231;22;20520;31
2021/09/27 19:38:37;;;;;;;15.65;13.38;;;;;;;;;;6136320;23;20188;31
2021/09/27 19:56:37;;;;;;;18.83;14.98;;;;;;;;;;6324688;22;20549;31
2021/09/27 20:03:38;;;;;;;17.05;14.13;;;;;;;;;;6324318;22;20967;-65
2021/09/27 20:06:11;;;;;;;18.02;14.98;;;;;;;;;;6296665;22;20215;31
2021/09/27 20:19:54;;;;;;;18.40;14.45;;;;;;;;;;6197927;22;20198;31
2021/09/27 20:24:05;;;;;;;18.77;15.25;;;;;;;;;;6170778;22;21512;-67
2021/09/27 20:30:39;;;;;;;18.75;14.82;;;;;;;;;;6167157;22;20521;31
2021/09/27 20:37:14;;;;;;;20.35;16.02;;;;;;;;;;6168610;22;20517;31
2021/09/27 20:50:43;;;;;;;21.45;17.17;;;;;;;;;;6260290;22;20564;-67
2021/09/27 20:58:01;;;;;;;23.25;17.50;;;;;;;;;;6292092;22;20591;31
2021/09/27 21:05:00;;;;;;;21.73;17.88;;;;;;;;;;6292401;22;20992;-66
2021/09/27 21:07:26;;;;;;;23.00;17.45;;;;;;;;;;6258209;22;20220;31
2021/09/27 21:11:52;;;;;;;23.63;18.73;;;;;;;;;;6199765;22;21053;-67
2021/09/27 21:14:18;;;;;;;25.33;18.77;;;;;;;;;;6224283;23;20159;-66
2021/09/27 21:16:44;;;;;;;24.08;17.98;;;;;;;;;;6224296;23;20120;-67
2021/09/27 21:19:11;;;;;;;23.77;18.10;;;;;;;;;;6221391;23;20195;-67
2021/09/27 21:21:37;;;;;;;24.40;18.48;;;;;;;;;;6224171;23;20278;-67
2021/09/27 21:24:03;;;;;;;24.77;17.90;;;;;;;;;;6224363;23;20185;-67
2021/09/27 21:26:29;;;;;;;25.58;19.02;;;;;;;;;;6224361;23;20140;-67
2021/09/27 21:28:55;;;;;;;24.27;18.35;;;;;;;;;;6224246;23;20374;-67
2021/09/27 21:31:21;;;;;;;25.63;17.98;;;;;;;;;;6223918;23;20675;-67
2021/09/27 21:33:47;;;;;;;25.35;18.23;;;;;;;;;;6223902;23;20147;-67
2021/09/27 21:36:13;;;;;;;26.95;19.90;;;;;;;;;;6223973;23;20148;-67
2021/09/27 21:38:40;;;;;;;27.48;19.35;;;;;;;;;;6223858;23;20223;-66
2021/09/27 21:41:06;;;;;;;26.08;19.08;;;;;;;;;;6223890;23;20140;-67
2021/09/27 21:43:32;;;;;;;26.40;18.63;;;;;;;;;;6223903;23;20147;-67
2021/09/27 21:45:57;;;;;;;30.45;20.13;;;;;;;;;;6223785;23;20176;-67
2021/09/27 21:48:23;;;;;;;26.98;19.38;;;;;;;;;;6223679;23;20148;-67
2021/09/27 21:50:50;;;;;;;28.90;20.20;;;;;;;;;;6223447;23;20160;-67
2021/09/27 21:53:16;;;;;;;26.77;20.17;;;;;;;;;;6223617;23;20447;-66
2021/09/27 21:55:42;;;;;;;30.10;20.67;;;;;;;;;;6223565;23;20171;-67
2021/09/27 21:58:09;;;;;;;23.90;18.65;;;;;;;;;;6223934;23;20141;-67
2021/09/27 22:00:48;;;;;;;28.90;20.40;;;;;;;;;;6223807;23;20227;-67
2021/09/27 22:03:14;;;;;;;26.95;20.42;;;;;;;;;;6223990;23;20128;-67
2021/09/27 22:05:40;;;;;;;28.25;20.27;;;;;;;;;;6223436;23;20424;-66
2021/09/27 22:08:08;;;;;;;27.42;20.38;;;;;;;;;;6223544;23;20140;-67
2021/09/27 22:10:35;;;;;;;27.45;21.00;;;;;;;;;;6223668;23;20191;-67
2021/09/27 22:13:02;;;;;;;29.27;20.13;;;;;;;;;;6223521;23;20144;-67
2021/09/27 22:15:28;;;;;;;29.02;20.08;;;;;;;;;;6223670;23;20163;-66
2021/09/27 22:17:54;;;;;;;29.95;21.08;;;;;;;;;;6223784;23;20151;-66
2021/09/27 22:20:21;;;;;;;28.92;20.95;;;;;;;;;;6223253;23;20474;-66
2021/09/27 22:22:47;;;;;;;29.17;21.38;;;;;;;;;;6217685;23;20425;-66
2021/09/27 22:25:13;;;;;;;30.83;21.27;;;;;;;;;;6216515;23;20144;-66
2021/09/27 22:27:40;;;;;;;28.95;20.13;;;;;;;;;;6216568;23;20186;-66
2021/09/27 22:30:07;;;;;;;28.98;21.40;;;;;;;;;;6216732;23;20176;-66
2021/09/27 22:32:33;;;;;;;30.33;21.73;;;;;;;;;;6216523;23;20195;-66
2021/09/27 22:34:59;;;;;;;27.70;20.88;;;;;;;;;;6216377;23;20575;-67
2021/09/27 22:37:25;;;;;;;29.40;19.88;;;;;;;;;;6216385;23;20140;-67
2021/09/27 22:39:51;;;;;;;28.85;21.08;;;;;;;;;;6216344;23;20566;-66
2021/09/27 22:42:17;;;;;;;32.72;20.25;;;;;;;;;;6216432;23;20141;-66
2021/09/27 22:44:43;;;;;;;28.85;21.23;;;;;;;;;;6216300;23;20577;-66
2021/09/27 22:47:10;;;;;;;30.92;21.40;;;;;;;;;;6216371;23;20433;-66
2021/09/27 22:49:36;;;;;;;29.77;21.23;;;;;;;;;;6216529;23;20206;-66
2021/09/27 22:52:02;;;;;;;29.60;21.33;;;;;;;;;;6216374;23;20145;-66
2021/09/27 22:54:30;;;;;;;29.33;20.60;;;;;;;;;;6216211;23;20195;-66
2021/09/27 22:56:56;;;;;;;29.98;21.23;;;;;;;;;;6216625;23;20159;-66
2021/09/27 22:59:22;;;;;;;31.25;21.92;;;;;;;;;;6216361;23;20137;-66
2021/09/27 23:01:48;;;;;;;31.35;21.27;;;;;;;;;;6216586;23;20146;-67
2021/09/27 23:04:14;;;;;;;31.75;20.52;;;;;;;;;;6216732;23;20228;-66
2021/09/27 23:06:40;;;;;;;34.75;22.33;;;;;;;;;;6216550;23;20168;-66
2021/09/27 23:09:06;;;;;;;30.15;22.13;;;;;;;;;;6216764;23;20421;-66
2021/09/27 23:11:32;;;;;;;33.13;22.50;;;;;;;;;;6216151;23;20171;-66
2021/09/27 23:13:58;;;;;;;30.20;20.75;;;;;;;;;;6216370;23;20137;-66
2021/09/27 23:16:24;;;;;;;31.58;22.17;;;;;;;;;;6216224;23;20148;-67
2021/09/27 23:18:49;;;;;;;31.42;21.23;;;;;;;;;;6216224;23;20565;-66
2021/09/27 23:21:15;;;;;;;29.35;20.83;;;;;;;;;;6216564;23;20136;-66
2021/09/27 23:23:41;;;;;;;32.55;21.50;;;;;;;;;;6216711;23;20472;-66
2021/09/27 23:26:07;;;;;;;28.30;21.50;;;;;;;;;;6216271;23;20231;-67
2021/09/27 23:28:33;;;;;;;32.92;22.23;;;;;;;;;;6216478;23;20216;-66
2021/09/27 23:30:59;;;;;;;34.47;22.05;;;;;;;;;;6216747;23;20164;-66
2021/09/27 23:33:25;;;;;;;29.25;22.27;;;;;;;;;;6216248;23;20147;-66
2021/09/27 23:35:51;;;;;;;29.27;21.10;;;;;;;;;;6216921;23;20140;-66
2021/09/27 23:38:17;;;;;;;30.73;21.17;;;;;;;;;;6190422;23;20145;-66
2021/09/27 23:40:43;;;;;;;32.05;22.05;;;;;;;;;;6216504;23;20561;-66
2021/09/27 23:43:10;;;;;;;30.45;21.67;;;;;;;;;;6216930;23;20148;-66
2021/09/27 23:45:36;;;;;;;29.20;21.25;;;;;;;;;;6216476;23;20151;-67
2021/09/27 23:57:23;;;;;;;29.60;20.55;;;;;;;;;;6196600;22;20210;31
